createdAt,value
2017-12-13T00:02:14.475Z,377.87
2017-12-13T00:04:42.438Z,310.48
2017-12-13T00:07:09.995Z,292.45
2017-12-13T00:09:37.568Z,282.00
2017-12-13T00:12:05.382Z,306.55
2017-12-13T00:14:32.918Z,251.27
2017-12-13T00:17:00.503Z,290.00
2017-12-13T00:19:28.029Z,344.37
2017-12-13T00:21:55.675Z,332.62
2017-12-13T00:24:23.465Z,346.45
2017-12-13T00:26:51.016Z,350.42
2017-12-13T00:29:18.789Z,383.02
2017-12-13T00:31:46.363Z,372.20
2017-12-13T00:34:13.907Z,394.27
2017-12-13T00:36:41.474Z,399.00
2017-12-13T00:39:09.031Z,375.20
2017-12-13T00:41:36.624Z,390.45
2017-12-13T00:44:04.164Z,403.25
2017-12-13T00:46:31.736Z,412.45
2017-12-13T00:48:59.256Z,385.77
2017-12-13T00:51:26.811Z,397.75
2017-12-13T00:53:54.365Z,368.25
2017-12-13T00:56:21.934Z,343.70
2017-12-13T00:58:49.496Z,268.05
2017-12-13T01:01:17.059Z,241.68
2017-12-13T01:03:44.650Z,199.43
2017-12-13T01:06:12.296Z,229.90
2017-12-13T01:08:39.855Z,266.27
2017-12-13T01:11:07.404Z,106.95
2017-12-13T01:13:34.919Z,93.12
2017-12-13T01:16:02.470Z,103.97
2017-12-13T01:18:30.283Z,147.50
2017-12-13T01:20:57.824Z,125.38
2017-12-13T01:23:25.666Z,86.75
2017-12-13T01:25:53.185Z,123.45
2017-12-13T01:28:20.736Z,112.75
2017-12-13T01:30:48.325Z,74.75
2017-12-13T01:33:15.876Z,82.45
2017-12-13T01:35:55.612Z,83.15
2017-12-13T01:38:23.150Z,67.15
2017-12-13T01:40:50.995Z,51.85
2017-12-13T01:43:18.561Z,144.52
2017-12-13T01:45:46.130Z,132.05
2017-12-13T01:48:13.658Z,99.70
2017-12-13T01:50:41.210Z,106.03
2017-12-13T01:53:08.774Z,113.05
2017-12-13T01:55:36.338Z,144.60
2017-12-13T01:58:03.971Z,143.62
2017-12-13T02:00:31.561Z,131.48
2017-12-13T02:02:59.107Z,128.48
2017-12-13T02:05:26.701Z,103.28
2017-12-13T02:07:54.263Z,73.10
2017-12-13T02:10:21.793Z,96.07
2017-12-13T02:12:49.380Z,58.78
2017-12-13T02:15:16.947Z,95.25
2017-12-13T02:17:44.502Z,101.75
2017-12-13T02:20:12.038Z,114.88
2017-12-13T02:22:39.607Z,100.80
2017-12-13T02:25:07.198Z,53.47
2017-12-13T02:27:34.742Z,43.47
2017-12-13T02:30:02.316Z,43.75
2017-12-13T02:32:29.928Z,39.90
2017-12-13T02:34:57.453Z,43.47
2017-12-13T02:37:24.978Z,42.13
2017-12-13T02:40:04.448Z,37.35
2017-12-13T02:42:31.985Z,36.10
2017-12-13T02:44:59.527Z,35.90
2017-12-13T02:47:27.078Z,39.33
2017-12-13T02:49:54.832Z,30.33
2017-12-13T02:52:22.590Z,34.33
2017-12-13T02:54:50.456Z,35.35
2017-12-13T02:57:18.023Z,40.80
2017-12-13T02:59:45.579Z,45.38
2017-12-13T03:02:13.173Z,38.25
2017-12-13T03:04:40.720Z,33.53
2017-12-13T03:07:08.268Z,36.92
2017-12-13T03:09:35.876Z,31.67
2017-12-13T03:12:03.647Z,36.65
2017-12-13T03:14:31.224Z,34.58
2017-12-13T03:16:58.811Z,46.35
2017-12-13T03:19:26.366Z,58.87
2017-12-13T03:21:53.911Z,79.12
2017-12-13T03:24:21.480Z,84.68
2017-12-13T03:26:49.028Z,108.43
2017-12-13T03:29:16.583Z,104.70
2017-12-13T03:31:44.168Z,118.37
2017-12-13T03:34:11.712Z,128.32
2017-12-13T03:36:39.562Z,133.95
2017-12-13T03:39:07.151Z,129.63
2017-12-13T03:41:34.706Z,127.95
2017-12-13T03:44:02.277Z,129.70
2017-12-13T03:46:29.860Z,135.18
2017-12-13T03:48:57.408Z,117.90
2017-12-13T03:51:24.957Z,39.65
2017-12-13T03:53:52.527Z,51.30
2017-12-13T03:56:20.055Z,69.65
2017-12-13T03:58:47.809Z,78.47
2017-12-13T04:01:15.401Z,120.70
2017-12-13T04:03:42.950Z,106.18
2017-12-13T04:06:10.526Z,121.50
2017-12-13T04:08:38.094Z,94.65
2017-12-13T04:11:05.661Z,94.70
2017-12-13T04:13:33.199Z,99.00
2017-12-13T04:16:00.746Z,121.35
2017-12-13T04:18:28.284Z,117.35
2017-12-13T04:20:56.056Z,120.78
2017-12-13T04:23:23.637Z,125.80
2017-12-13T04:25:51.226Z,142.93
2017-12-13T04:28:18.974Z,105.03
2017-12-13T04:30:46.706Z,125.47
2017-12-13T04:33:14.454Z,126.15
2017-12-13T04:35:41.991Z,143.55
2017-12-13T04:38:09.565Z,137.23
2017-12-13T04:40:37.121Z,144.05
2017-12-13T04:43:04.669Z,129.93
2017-12-13T04:45:32.249Z,147.93
2017-12-13T04:47:59.833Z,135.65
2017-12-13T04:50:27.373Z,141.40
2017-12-13T04:52:54.940Z,96.72
2017-12-13T04:55:22.492Z,78.15
2017-12-13T04:57:50.047Z,117.78
2017-12-13T05:00:17.637Z,119.20
2017-12-13T05:02:45.174Z,107.18
2017-12-13T05:05:12.713Z,125.18
2017-12-13T05:07:40.280Z,102.40
2017-12-13T05:10:07.846Z,64.37
2017-12-13T05:12:35.382Z,78.82
2017-12-13T05:15:02.942Z,47.92
2017-12-13T05:17:30.498Z,61.53
2017-12-13T05:19:58.027Z,39.95
2017-12-13T05:22:25.934Z,48.45
2017-12-13T05:24:53.775Z,57.75
2017-12-13T05:27:21.293Z,41.53
2017-12-13T05:29:49.454Z,56.70
2017-12-13T05:32:17.006Z,67.50
2017-12-13T05:34:44.697Z,70.32
2017-12-13T05:37:12.227Z,76.85
2017-12-13T05:39:39.810Z,76.37
2017-12-13T05:42:07.387Z,76.37
2017-12-13T05:44:34.939Z,81.75
2017-12-13T05:47:02.591Z,77.35
2017-12-13T05:49:30.187Z,70.43
2017-12-13T05:51:57.735Z,72.22
2017-12-13T05:54:25.321Z,74.72
2017-12-13T05:56:52.908Z,70.47
2017-12-13T05:59:20.500Z,67.82
2017-12-13T06:01:48.194Z,69.18
2017-12-13T06:04:15.733Z,86.47
2017-12-13T06:06:43.285Z,62.70
2017-12-13T06:09:10.937Z,60.00
2017-12-13T06:11:38.492Z,48.87
2017-12-13T06:14:06.026Z,55.28
2017-12-13T06:16:33.587Z,63.85
2017-12-13T06:19:01.172Z,60.83
2017-12-13T06:21:28.750Z,60.12
2017-12-13T06:23:56.463Z,53.50
2017-12-13T06:26:23.999Z,47.30
2017-12-13T06:28:51.736Z,45.63
2017-12-13T06:31:19.313Z,48.78
2017-12-13T06:33:46.867Z,46.47
2017-12-13T06:36:14.405Z,50.78
2017-12-13T06:38:42.000Z,49.25
2017-12-13T06:41:09.542Z,52.20
2017-12-13T06:43:38.748Z,59.83
2017-12-13T06:46:06.447Z,74.30
2017-12-13T06:48:34.067Z,57.42
2017-12-13T06:51:01.616Z,44.17
2017-12-13T06:53:29.163Z,51.30
2017-12-13T06:55:56.718Z,62.17
2017-12-13T06:58:24.285Z,64.70
2017-12-13T07:00:51.879Z,78.10
2017-12-13T07:03:19.443Z,78.17
2017-12-13T07:05:46.976Z,79.63
2017-12-13T07:08:14.552Z,74.30
2017-12-13T07:10:42.100Z,73.90
2017-12-13T07:13:09.652Z,77.30
2017-12-13T07:15:37.243Z,70.13
2017-12-13T07:18:04.778Z,62.97
2017-12-13T07:20:32.354Z,73.93
2017-12-13T07:22:59.913Z,77.80
2017-12-13T07:25:27.446Z,79.27
2017-12-13T07:27:55.082Z,79.60
2017-12-13T07:30:22.802Z,85.70
2017-12-13T07:32:50.392Z,81.97
2017-12-13T07:35:17.926Z,80.83
2017-12-13T07:37:45.501Z,81.07
2017-12-13T07:40:13.040Z,81.73
2017-12-13T07:42:40.663Z,66.03
2017-12-13T07:45:08.236Z,58.33
2017-12-13T07:47:35.778Z,57.27
2017-12-13T07:50:03.535Z,53.93
2017-12-13T07:52:31.749Z,59.90
2017-12-13T07:54:59.342Z,63.00
2017-12-13T07:57:26.922Z,75.23
2017-12-13T07:59:54.532Z,74.93
2017-12-13T08:02:22.204Z,73.67
2017-12-13T08:04:49.759Z,66.70
2017-12-13T08:07:17.579Z,64.67
2017-12-13T08:09:45.114Z,64.27
2017-12-13T08:12:12.680Z,63.60
2017-12-13T08:14:40.220Z,60.50
2017-12-13T08:17:07.842Z,60.03
2017-12-13T08:19:35.416Z,60.20
2017-12-13T08:22:03.003Z,73.47
2017-12-13T08:24:30.559Z,84.43
2017-12-13T08:26:58.356Z,94.07
2017-12-13T08:29:25.910Z,96.20
2017-12-13T08:31:53.453Z,97.20
2017-12-13T08:34:21.014Z,97.40
2017-12-13T08:36:48.586Z,95.70
2017-12-13T08:39:16.175Z,102.73
2017-12-13T08:41:43.778Z,94.37
2017-12-13T08:44:11.555Z,93.03
2017-12-13T08:46:39.132Z,94.20
2017-12-13T08:49:06.757Z,100.77
2017-12-13T08:51:34.317Z,116.67
2017-12-13T08:54:01.930Z,119.03
2017-12-13T08:56:29.507Z,142.60
2017-12-13T08:58:57.060Z,179.63
2017-12-13T09:01:24.690Z,223.33
2017-12-13T09:03:52.488Z,226.40
2017-12-13T09:06:20.061Z,226.37
2017-12-13T09:08:47.666Z,213.00
2017-12-13T09:11:15.202Z,221.03
2017-12-13T09:13:42.766Z,211.73
2017-12-13T09:16:10.322Z,220.17
2017-12-13T09:18:37.879Z,216.60
2017-12-13T09:21:05.468Z,210.97
2017-12-13T09:23:33.078Z,203.10
2017-12-13T09:26:00.637Z,193.27
2017-12-13T09:28:28.210Z,180.57
2017-12-13T09:30:55.767Z,181.17
2017-12-13T09:33:23.332Z,168.20
2017-12-13T09:35:50.944Z,171.77
2017-12-13T09:38:18.590Z,164.30
2017-12-13T09:40:46.601Z,164.60
2017-12-13T09:43:15.012Z,168.07
2017-12-13T09:45:42.876Z,171.57
2017-12-13T09:48:10.428Z,141.50
2017-12-13T09:50:38.000Z,118.67
2017-12-13T09:53:05.572Z,98.63
2017-12-13T09:55:33.130Z,98.03
2017-12-13T09:58:00.679Z,93.17
2017-12-13T10:00:28.517Z,78.07
2017-12-13T10:02:56.137Z,73.07
2017-12-13T10:05:23.684Z,74.50
2017-12-13T10:07:51.229Z,58.33
2017-12-13T10:10:18.839Z,59.47
2017-12-13T10:12:46.414Z,59.50
2017-12-13T10:15:13.995Z,52.30
2017-12-13T10:17:41.611Z,62.33
2017-12-13T10:20:09.200Z,63.40
2017-12-13T10:22:36.758Z,61.40
2017-12-13T10:25:04.343Z,53.50
2017-12-13T10:27:31.922Z,55.37
2017-12-13T10:29:59.519Z,47.00
2017-12-13T10:32:40.999Z,51.40
2017-12-13T10:38:10.649Z,41.67
2017-12-13T10:40:38.191Z,39.87
2017-12-13T10:43:05.760Z,40.30
2017-12-13T10:45:33.343Z,35.70
2017-12-13T10:48:00.880Z,33.20
2017-12-13T10:50:28.423Z,35.73
2017-12-13T10:52:55.995Z,37.00
2017-12-13T10:55:23.543Z,35.30
2017-12-13T10:57:51.070Z,37.73
2017-12-13T11:00:18.764Z,33.70
2017-12-13T11:02:46.322Z,35.93
2017-12-13T11:05:13.878Z,33.53
2017-12-13T11:07:41.452Z,34.33
2017-12-13T11:10:09.021Z,33.73
2017-12-13T11:12:36.685Z,31.83
2017-12-13T11:15:04.247Z,29.97
2017-12-13T11:17:31.851Z,28.90
2017-12-13T11:19:59.511Z,39.10
2017-12-13T11:22:27.095Z,37.70
2017-12-13T11:24:54.626Z,41.70
2017-12-13T11:27:23.152Z,51.87
2017-12-13T11:29:50.725Z,47.40
2017-12-13T11:32:18.319Z,52.87
2017-12-13T11:34:46.125Z,51.57
2017-12-13T11:37:16.579Z,48.63
2017-12-13T11:39:44.150Z,47.63
2017-12-13T11:42:11.714Z,43.00
2017-12-13T11:44:39.241Z,44.80
2017-12-13T11:47:06.921Z,43.43
2017-12-13T11:49:34.491Z,42.60
2017-12-13T11:52:02.076Z,41.77
2017-12-13T11:54:35.166Z,43.50
2017-12-13T11:57:02.720Z,43.67
2017-12-13T11:59:30.234Z,42.00
2017-12-13T12:01:57.794Z,45.67
2017-12-13T12:04:25.389Z,50.07
2017-12-13T12:06:52.952Z,62.43
2017-12-13T12:09:20.567Z,71.57
2017-12-13T12:11:48.104Z,66.67
2017-12-13T12:14:15.706Z,63.07
2017-12-13T12:16:43.341Z,57.83
2017-12-13T12:19:10.882Z,52.13
2017-12-13T12:21:38.405Z,51.73
2017-12-13T12:24:06.009Z,56.17
2017-12-13T12:26:33.654Z,51.90
2017-12-13T12:29:01.299Z,52.50
2017-12-13T12:31:28.933Z,54.43
2017-12-13T12:33:56.476Z,52.90
2017-12-13T12:36:24.015Z,52.93
2017-12-13T12:38:51.593Z,51.73
2017-12-13T12:41:19.106Z,53.73
2017-12-13T12:43:46.673Z,60.50
2017-12-13T12:46:14.965Z,69.80
2017-12-13T12:48:42.506Z,68.43
2017-12-13T12:51:10.053Z,85.47
2017-12-13T12:53:37.652Z,79.53
2017-12-13T12:56:05.241Z,84.40
2017-12-13T12:58:32.817Z,87.00
2017-12-13T13:01:00.385Z,92.87
2017-12-13T13:03:27.948Z,87.90
2017-12-13T13:05:55.531Z,84.57
2017-12-13T13:08:23.285Z,64.47
2017-12-13T13:10:50.890Z,62.73
2017-12-13T13:13:18.436Z,61.70
2017-12-13T13:15:46.099Z,61.23
2017-12-13T13:18:13.652Z,59.57
2017-12-13T13:20:41.245Z,60.90
2017-12-13T13:23:08.822Z,59.57
2017-12-13T13:25:36.501Z,59.43
2017-12-13T13:28:04.109Z,59.27
2017-12-13T13:30:31.685Z,61.73
2017-12-13T13:32:59.231Z,60.80
2017-12-13T13:35:26.820Z,69.90
2017-12-13T13:37:54.384Z,74.90
2017-12-13T13:40:21.948Z,73.63
2017-12-13T13:42:50.278Z,72.23
2017-12-13T13:45:17.828Z,74.37
2017-12-13T13:47:45.693Z,76.03
2017-12-13T13:50:13.227Z,79.13
2017-12-13T13:52:40.800Z,77.80
2017-12-13T13:55:08.357Z,81.53
2017-12-13T13:57:35.878Z,78.60
2017-12-13T14:00:10.484Z,84.83
2017-12-13T14:02:38.050Z,80.00
2017-12-13T14:05:05.597Z,70.80
2017-12-13T14:07:33.181Z,74.10
2017-12-13T14:10:00.721Z,78.23
2017-12-13T14:12:28.285Z,78.70
2017-12-13T14:14:55.844Z,83.07
2017-12-13T14:17:23.399Z,82.10
2017-12-13T14:19:50.943Z,79.30
2017-12-13T14:22:18.522Z,80.13
2017-12-13T14:24:46.077Z,80.00
2017-12-13T14:27:13.649Z,75.40
2017-12-13T14:29:41.213Z,77.97
2017-12-13T14:32:08.784Z,82.43
2017-12-13T14:34:36.427Z,92.67
2017-12-13T14:37:04.255Z,76.33
2017-12-13T14:39:31.835Z,97.37
2017-12-13T14:41:59.380Z,111.13
2017-12-13T14:44:26.992Z,114.50
2017-12-13T14:46:54.671Z,171.97
2017-12-13T14:49:22.235Z,163.87
2017-12-13T14:51:49.806Z,126.83
2017-12-13T14:54:17.484Z,121.30
2017-12-13T14:56:45.033Z,122.80
2017-12-13T14:59:12.640Z,117.53
2017-12-13T15:01:40.266Z,116.83
2017-12-13T15:04:07.790Z,119.87
2017-12-13T15:06:35.880Z,120.97
2017-12-13T15:09:03.570Z,123.90
2017-12-13T15:11:31.180Z,143.10
2017-12-13T15:13:59.049Z,154.40
2017-12-13T15:16:26.615Z,186.47
2017-12-13T15:18:54.193Z,194.17
2017-12-13T15:21:21.770Z,187.70
2017-12-13T15:23:49.446Z,189.60
2017-12-13T15:26:17.188Z,197.87
2017-12-13T15:28:44.882Z,203.53
2017-12-13T15:31:12.709Z,230.50
2017-12-13T15:33:40.401Z,261.10
2017-12-13T15:36:08.072Z,269.80
2017-12-13T15:38:35.644Z,254.33
2017-12-13T15:41:03.342Z,241.53
2017-12-13T15:43:30.896Z,219.00
2017-12-13T15:45:58.484Z,258.53
2017-12-13T15:48:26.047Z,200.67
2017-12-13T15:50:53.639Z,222.97
2017-12-13T15:53:21.225Z,239.93
2017-12-13T15:55:48.804Z,222.43
2017-12-13T15:58:16.334Z,222.23
2017-12-13T16:00:43.890Z,244.50
2017-12-13T16:03:11.458Z,229.73
2017-12-13T16:05:39.018Z,253.93
2017-12-13T16:08:06.624Z,265.80
2017-12-13T16:10:34.181Z,256.90
2017-12-13T16:13:01.742Z,249.50
2017-12-13T16:15:29.324Z,206.50
2017-12-13T16:17:56.897Z,201.77
2017-12-13T16:20:24.449Z,202.53
2017-12-13T16:22:51.998Z,196.57
2017-12-13T16:25:19.538Z,200.47
2017-12-13T16:27:47.258Z,213.47
2017-12-13T16:30:15.887Z,217.20
2017-12-13T16:32:43.507Z,178.70
2017-12-13T16:35:11.150Z,199.17
2017-12-13T16:37:38.790Z,175.63
2017-12-13T16:40:06.364Z,177.67
2017-12-13T16:42:33.981Z,146.10
2017-12-13T16:45:02.355Z,155.30
2017-12-13T16:47:30.066Z,163.60
2017-12-13T16:49:57.680Z,195.10
2017-12-13T16:52:25.229Z,191.30
2017-12-13T16:54:52.775Z,193.73
2017-12-13T16:57:20.306Z,198.30
2017-12-13T16:59:48.054Z,223.83
2017-12-13T17:02:14.986Z,216.07
2017-12-13T17:04:42.546Z,199.00
2017-12-13T17:07:10.189Z,132.17
2017-12-13T17:09:37.768Z,173.87
2017-12-13T17:12:05.317Z,239.03
2017-12-13T17:14:32.854Z,238.83
2017-12-13T17:17:00.558Z,238.13
2017-12-13T17:19:28.142Z,235.23
2017-12-13T17:21:55.732Z,258.27
2017-12-13T17:24:23.502Z,231.10
2017-12-13T17:26:51.035Z,263.63
2017-12-13T17:29:18.616Z,268.83
2017-12-13T17:31:46.195Z,246.87
2017-12-13T17:34:13.727Z,145.63
2017-12-13T17:36:41.345Z,170.13
2017-12-13T17:39:08.960Z,137.60
2017-12-13T17:41:36.537Z,229.47
2017-12-13T17:44:04.121Z,121.07
2017-12-13T17:46:31.961Z,190.37
2017-12-13T17:49:00.194Z,162.13
2017-12-13T17:51:27.750Z,165.30
2017-12-13T17:53:55.328Z,204.60
2017-12-13T17:56:22.863Z,204.03
2017-12-13T17:58:50.437Z,191.90
2017-12-13T18:01:18.018Z,116.43
2017-12-13T18:03:45.610Z,216.73
2017-12-13T18:06:13.225Z,221.00
2017-12-13T18:08:40.839Z,201.83
2017-12-13T18:11:08.426Z,211.27
2017-12-13T18:13:37.468Z,201.13
2017-12-13T18:16:05.382Z,177.93
2017-12-13T18:18:32.962Z,183.23
2017-12-13T18:21:00.532Z,188.50
2017-12-13T18:23:28.140Z,197.73
2017-12-13T18:25:56.085Z,202.50
2017-12-13T18:28:23.654Z,182.17
2017-12-13T18:30:51.257Z,195.93
2017-12-13T18:33:19.125Z,199.73
2017-12-13T18:35:46.751Z,170.87
2017-12-13T18:38:14.349Z,176.97
2017-12-13T18:40:41.966Z,169.27
2017-12-13T18:43:09.563Z,177.83
2017-12-13T18:45:37.326Z,187.70
2017-12-13T18:48:04.908Z,191.83
2017-12-13T18:50:32.601Z,191.40
2017-12-13T18:53:00.352Z,193.93
2017-12-13T18:55:28.221Z,186.90
2017-12-13T18:57:56.587Z,207.00
2017-12-13T19:00:25.376Z,178.57
2017-12-13T19:02:53.212Z,175.07
2017-12-13T19:05:20.909Z,176.20
2017-12-13T19:07:49.354Z,182.27
2017-12-13T19:10:17.130Z,166.43
2017-12-13T19:12:44.704Z,161.33
2017-12-13T19:15:12.378Z,163.57
2017-12-13T19:17:39.947Z,164.10
2017-12-13T19:20:08.099Z,165.93
2017-12-13T19:22:35.796Z,173.13
2017-12-13T19:25:03.398Z,160.67
2017-12-13T19:27:31.928Z,177.90
2017-12-13T19:29:59.756Z,174.43
2017-12-13T19:32:28.309Z,193.33
2017-12-13T19:34:56.013Z,182.37
2017-12-13T19:37:23.665Z,151.20
2017-12-13T19:39:51.297Z,146.80
2017-12-13T19:42:18.944Z,144.70
2017-12-13T19:44:46.539Z,154.47
2017-12-13T19:47:14.245Z,177.47
2017-12-13T19:49:41.849Z,149.43
2017-12-13T19:52:09.503Z,143.30
2017-12-13T19:54:37.198Z,160.27
2017-12-13T19:57:05.655Z,159.73
2017-12-13T19:59:33.829Z,171.47
2017-12-13T20:02:01.472Z,196.93
2017-12-13T20:04:29.781Z,200.33
2017-12-13T20:06:57.375Z,197.70
2017-12-13T20:09:24.978Z,193.50
2017-12-13T20:11:53.376Z,201.73
2017-12-13T20:14:22.133Z,210.97
2017-12-13T20:16:49.848Z,183.30
2017-12-13T20:19:17.664Z,148.33
2017-12-13T20:21:46.457Z,153.70
2017-12-13T20:24:14.089Z,171.18
2017-12-13T20:26:41.677Z,182.47
2017-12-13T20:29:09.292Z,175.00
2017-12-13T20:31:36.900Z,186.07
2017-12-13T20:34:04.584Z,182.93
2017-12-13T20:36:32.382Z,182.60
2017-12-13T20:39:00.115Z,189.30
2017-12-13T20:41:27.678Z,191.83
2017-12-13T20:43:55.222Z,178.93
2017-12-13T20:46:22.951Z,171.03
2017-12-13T20:48:50.538Z,176.53
2017-12-13T20:51:18.342Z,166.80
2017-12-13T20:53:45.948Z,164.97
2017-12-13T20:56:13.748Z,162.90
2017-12-13T20:58:41.316Z,172.60
2017-12-13T21:01:09.119Z,166.20
2017-12-13T21:03:36.873Z,158.70
2017-12-13T21:06:04.465Z,145.77
2017-12-13T21:08:33.095Z,144.80
2017-12-13T21:11:01.751Z,122.90
2017-12-13T21:13:29.376Z,116.87
2017-12-13T21:15:57.051Z,114.07
2017-12-13T21:18:24.682Z,139.77
2017-12-13T21:20:52.226Z,131.27
2017-12-13T21:23:20.043Z,128.07
2017-12-13T21:25:47.674Z,126.10
2017-12-13T21:28:15.261Z,130.07
2017-12-13T21:30:42.957Z,127.07
2017-12-13T21:33:10.550Z,124.03
2017-12-13T21:35:38.121Z,122.83
2017-12-13T21:38:05.693Z,127.23
2017-12-13T21:40:33.460Z,128.37
2017-12-13T21:43:01.011Z,126.03
2017-12-13T21:45:28.596Z,123.13
2017-12-13T21:47:56.135Z,123.40
2017-12-13T21:50:23.672Z,128.97
2017-12-13T21:52:51.294Z,143.57
2017-12-13T21:55:18.822Z,134.80
2017-12-13T21:57:46.635Z,127.60
2017-12-13T22:00:14.395Z,126.37
2017-12-13T22:02:42.024Z,124.20
2017-12-13T22:05:09.643Z,123.57
2017-12-13T22:07:37.457Z,125.90
2017-12-13T22:10:04.985Z,127.23
2017-12-13T22:12:32.522Z,129.60
2017-12-13T22:15:00.865Z,110.13
2017-12-13T22:17:28.601Z,118.60
2017-12-13T22:19:56.371Z,114.53
2017-12-13T22:22:24.260Z,109.47
2017-12-13T22:24:51.831Z,109.77
2017-12-13T22:27:19.377Z,103.17
2017-12-13T22:29:46.959Z,101.17
2017-12-13T22:32:14.542Z,102.10
2017-12-13T22:34:42.380Z,102.90
2017-12-13T22:37:09.936Z,97.30
2017-12-13T22:39:37.495Z,94.90
2017-12-13T22:42:05.119Z,97.43
2017-12-13T22:44:32.881Z,93.50
2017-12-13T22:47:00.459Z,85.67
2017-12-13T22:49:28.008Z,88.20
2017-12-13T22:51:55.586Z,75.53
2017-12-13T22:54:23.154Z,81.37
2017-12-13T22:56:50.733Z,48.83
2017-12-13T22:59:18.256Z,26.53
2017-12-13T23:01:45.874Z,22.83
2017-12-13T23:04:13.461Z,15.30
2017-12-13T23:06:41.011Z,13.27
2017-12-13T23:09:08.620Z,12.50
2017-12-13T23:11:36.150Z,10.97
2017-12-13T23:14:03.763Z,10.30
2017-12-13T23:16:31.309Z,10.03
2017-12-13T23:18:58.866Z,10.50
2017-12-13T23:21:26.478Z,9.27
2017-12-13T23:24:08.838Z,10.30
2017-12-13T23:26:36.466Z,9.63
2017-12-13T23:29:04.373Z,10.60
2017-12-13T23:31:31.956Z,9.63
2017-12-13T23:33:59.496Z,10.73
2017-12-13T23:36:27.075Z,10.27
2017-12-13T23:39:16.260Z,10.57
2017-12-13T23:41:43.913Z,9.57
2017-12-13T23:44:11.491Z,10.87
2017-12-13T23:46:39.044Z,9.90
2017-12-13T23:49:06.576Z,10.87
2017-12-13T23:51:34.168Z,11.83
2017-12-13T23:54:01.755Z,12.27
2017-12-13T23:56:29.532Z,11.90
2017-12-13T23:58:58.701Z,11.93
